Time;durP1;ratioP1;P1;durP2;ratioP2;P2;SDS_P1;SDS_P2;PMS_P1;PMS_P2;Temp;Humidity;BMP_temperature;BMP_pressure;BME280_temperature;BME280_humidity;BME280_pressure;Samples;Min_cycle;Max_cycle;Signal;HPM_P1;HPM_P2
2022/01/10 00:02:02;;;;;;;46.40;20.27;;;;;;;-2.27;94.78;97975.84;4485383;31;20123;-73
2022/01/10 00:04:30;;;;;;;63.22;21.50;;;;;;;-2.28;94.72;97974.22;4485626;31;20119;-73
2022/01/10 00:06:57;;;;;;;54.80;21.08;;;;;;;-2.34;95.09;97978.72;4485557;31;20123;-73
2022/01/10 00:09:24;;;;;;;50.72;21.05;;;;;;;-2.38;95.26;97977.22;4485840;31;20119;-73
2022/01/10 00:11:51;;;;;;;55.03;21.30;;;;;;;-2.25;94.48;97971.50;4485426;31;20123;-73
2022/01/10 00:14:18;;;;;;;50.65;20.45;;;;;;;-2.23;94.10;97979.94;4485510;31;20084;-73
2022/01/10 00:16:45;;;;;;;41.03;20.58;;;;;;;-2.18;93.61;97980.53;4485511;31;20092;-73
2022/01/10 00:19:13;;;;;;;53.42;21.45;;;;;;;-2.08;92.61;97979.16;4485822;31;20100;-73
2022/01/10 00:21:40;;;;;;;51.90;21.70;;;;;;;-2.17;92.87;97979.63;4485407;31;20100;-73
2022/01/10 00:24:07;;;;;;;53.95;22.10;;;;;;;-2.27;93.24;97983.56;4485400;31;20092;-73
2022/01/10 00:26:35;;;;;;;47.38;20.70;;;;;;;-2.26;93.34;97983.47;4485494;31;20092;-73
2022/01/10 00:29:02;;;;;;;49.92;21.75;;;;;;;-2.28;93.07;97981.91;4485364;31;20544;-73
2022/01/10 00:31:29;;;;;;;45.58;20.48;;;;;;;-2.30;92.81;97983.69;4485568;31;20528;-73
2022/01/10 00:33:57;;;;;;;58.15;21.90;;;;;;;-2.29;92.73;97985.38;4485222;31;20096;-73
2022/01/10 00:36:25;;;;;;;49.22;21.92;;;;;;;-2.15;91.28;97985.50;4485621;31;20096;-73
2022/01/10 00:38:52;;;;;;;43.38;19.60;;;;;;;-1.99;90.04;97990.69;4485314;31;20088;-73
2022/01/10 00:41:19;;;;;;;50.95;21.62;;;;;;;-2.07;89.75;97987.72;4485436;31;20377;-73
2022/01/10 00:43:48;;;;;;;44.80;19.40;;;;;;;-2.10;88.95;97988.69;4485020;31;20096;-73
2022/01/10 00:46:20;;;;;;;49.45;20.92;;;;;;;-2.08;88.43;97989.41;4485246;31;20569;-73
2022/01/10 00:48:48;;;;;;;45.78;18.45;;;;;;;-2.06;88.43;97992.75;4485141;31;20453;-73
2022/01/10 00:51:15;;;;;;;46.65;19.48;;;;;;;-1.97;87.57;97997.44;4484156;32;20178;-73
2022/01/10 00:53:47;;;;;;;46.70;19.67;;;;;;;-2.04;87.63;97993.50;4485103;31;20149;-73
2022/01/10 00:56:15;;;;;;;51.88;21.42;;;;;;;-1.92;87.34;97998.91;4485369;31;20111;-73
2022/01/10 00:58:42;;;;;;;49.30;21.90;;;;;;;-2.07;90.24;97998.78;4485047;31;20100;-73
2022/01/10 01:01:09;;;;;;;48.13;20.25;;;;;;;-2.07;90.82;98001.34;4485303;31;20112;-73
2022/01/10 01:03:37;;;;;;;51.03;22.25;;;;;;;-2.05;90.67;97996.97;4485119;31;20097;-73
2022/01/10 01:06:05;;;;;;;51.72;22.20;;;;;;;-2.09;90.88;97998.06;4485253;31;20084;-73
2022/01/10 01:08:34;;;;;;;42.88;20.60;;;;;;;-2.05;90.98;98001.28;4485289;31;20088;-73
2022/01/10 01:16:18;;;;;;;51.92;22.52;;;;;;;-2.14;92.20;98011.09;4485337;31;20130;-73
2022/01/10 01:24:05;;;;;;;50.67;21.50;;;;;;;-2.17;92.11;98006.09;4484954;31;20442;-73
2022/01/10 01:26:41;;;;;;;44.63;20.77;;;;;;;-2.14;92.19;98002.56;4484924;32;20111;-74
2022/01/10 01:29:10;;;;;;;47.25;20.48;;;;;;;-2.16;92.37;98001.81;4485018;32;20155;-74
2022/01/10 01:31:37;;;;;;;43.42;20.17;;;;;;;-2.22;92.73;98012.37;4485373;31;20116;-74
2022/01/10 01:34:05;;;;;;;48.55;21.30;;;;;;;-2.16;92.89;98014.66;4485197;31;20096;-74
2022/01/10 01:36:33;;;;;;;46.88;19.67;;;;;;;-2.12;92.39;98015.31;4485022;31;20080;-74
2022/01/10 01:39:09;;;;;;;50.88;20.65;;;;;;;-2.07;91.88;98015.94;4484772;31;20129;-73
2022/01/10 01:41:41;;;;;;;48.22;20.77;;;;;;;-1.95;91.24;98020.44;4485317;31;20087;-73
2022/01/10 01:44:09;;;;;;;58.08;22.02;;;;;;;-1.87;90.56;98017.50;4484604;31;20457;-74
2022/01/10 01:46:38;;;;;;;49.72;20.67;;;;;;;-1.76;89.82;98010.06;4484901;31;20084;-73
2022/01/10 01:49:06;;;;;;;51.42;20.37;;;;;;;-1.78;89.39;98017.00;4484433;31;20085;-73
2022/01/10 01:51:34;;;;;;;44.40;21.15;;;;;;;-1.80;89.37;98018.84;4484847;31;20123;-73
2022/01/10 01:54:02;;;;;;;54.00;20.90;;;;;;;-1.86;88.61;98019.13;4484973;31;20418;-73
2022/01/10 01:56:29;;;;;;;50.45;20.02;;;;;;;-1.82;89.04;98015.50;4484925;31;20105;-73
2022/01/10 01:58:57;;;;;;;50.53;20.65;;;;;;;-1.72;88.39;98014.13;4484894;32;20508;-74
2022/01/10 02:01:25;;;;;;;47.50;20.50;;;;;;;-1.88;88.55;98013.25;4484651;32;20217;-73
2022/01/10 02:03:53;;;;;;;58.40;23.02;;;;;;;-1.89;88.90;98009.00;4484704;31;20126;-73
2022/01/10 02:06:21;;;;;;;59.97;24.33;;;;;;;-1.95;89.03;98017.88;4485039;31;20096;-73
2022/01/10 02:08:48;;;;;;;50.10;21.58;;;;;;;-1.96;89.31;98024.72;4484445;31;20450;-73
2022/01/10 02:11:15;;;;;;;51.22;21.52;;;;;;;-2.02;89.01;98019.91;4485009;31;20096;-73
2022/01/10 02:13:43;;;;;;;57.28;22.58;;;;;;;-2.07;89.14;98018.50;4483643;31;20115;-73
2022/01/10 02:16:17;;;;;;;85.03;31.10;;;;;;;-1.94;88.00;98016.94;4484777;31;20084;-73
2022/01/10 02:18:45;;;;;;;64.78;25.77;;;;;;;-1.99;87.48;98012.06;4484602;31;20084;-73
2022/01/10 02:21:13;;;;;;;57.22;23.65;;;;;;;-1.81;85.78;98007.72;4484568;31;20120;-73
2022/01/10 02:23:41;;;;;;;54.00;22.60;;;;;;;-1.83;85.71;98014.69;4484717;31;20092;-73
2022/01/10 02:26:09;;;;;;;46.35;20.48;;;;;;;-1.70;84.95;98007.16;4484150;31;20144;-73
2022/01/10 02:28:36;;;;;;;51.40;21.10;;;;;;;-1.72;85.46;98006.44;4484524;31;20092;-73
2022/01/10 02:31:03;;;;;;;52.05;22.40;;;;;;;-1.66;85.46;98013.81;4484314;31;20092;-73
2022/01/10 02:33:31;;;;;;;47.50;21.08;;;;;;;-1.93;86.65;98015.22;4484403;31;20165;-74
2022/01/10 02:38:45;;;;;;;55.12;23.40;;;;;;;-2.01;87.83;98013.06;4484281;31;20556;-73
2022/01/10 02:41:26;;;;;;;58.35;24.40;;;;;;;-1.97;87.96;98012.81;4484577;31;20084;-73
2022/01/10 02:43:57;;;;;;;53.28;23.33;;;;;;;-1.99;87.91;98018.94;4484013;31;20092;-74
2022/01/10 02:46:25;;;;;;;49.28;23.33;;;;;;;-1.90;87.93;98018.47;4484263;31;20096;-73
2022/01/10 02:48:53;;;;;;;54.45;22.33;;;;;;;-2.02;88.24;98017.34;4484165;31;20114;-73
2022/01/10 02:51:21;;;;;;;60.80;22.75;;;;;;;-1.89;87.76;98012.44;4484167;31;20496;-74
2022/01/10 02:53:48;;;;;;;42.78;19.92;;;;;;;-2.00;88.01;98017.25;4484269;31;20105;-73
2022/01/10 02:56:15;;;;;;;51.37;22.87;;;;;;;-1.94;88.05;98019.53;4483666;32;20175;-73
2022/01/10 02:58:42;;;;;;;53.38;22.87;;;;;;;-1.87;87.80;98025.19;4484274;31;20092;-74
2022/01/10 03:01:10;;;;;;;48.72;21.98;;;;;;;-1.90;87.79;98026.16;4483796;31;20143;-73
2022/01/10 03:03:38;;;;;;;49.38;21.10;;;;;;;-1.79;87.56;98034.16;4483843;31;20088;-73
2022/01/10 03:06:05;;;;;;;58.83;24.17;;;;;;;-1.79;87.56;98035.88;4483648;31;20356;-73
2022/01/10 03:08:33;;;;;;;55.17;23.85;;;;;;;-1.80;87.86;98034.25;4484154;31;20097;-74
2022/01/10 03:11:01;;;;;;;53.05;23.85;;;;;;;-1.79;88.02;98033.31;4483918;31;20560;-73
2022/01/10 03:13:28;;;;;;;50.22;21.87;;;;;;;-1.84;88.28;98040.44;4483956;31;20382;-74
2022/01/10 03:15:56;;;;;;;64.43;23.08;;;;;;;-1.76;88.29;98033.16;4483587;32;20145;-74
2022/01/10 03:18:24;;;;;;;58.05;21.95;;;;;;;-1.72;87.83;98039.81;4483840;31;20115;-74
2022/01/10 03:20:51;;;;;;;54.28;21.83;;;;;;;-1.56;87.21;98041.59;4483751;31;20096;-74
2022/01/10 03:23:18;;;;;;;53.87;23.27;;;;;;;-1.59;87.32;98045.13;4483606;32;20165;-73
2022/01/10 03:25:45;;;;;;;51.10;22.00;;;;;;;-1.71;87.78;98038.91;4483387;31;20069;-74
2022/01/10 03:28:15;;;;;;;54.53;22.50;;;;;;;-1.71;87.53;98038.91;4486320;31;20093;-73
2022/01/10 03:30:42;;;;;;;54.67;23.35;;;;;;;-1.84;88.11;98048.13;4485863;31;20512;-74
2022/01/10 03:33:10;;;;;;;57.65;23.73;;;;;;;-1.83;88.25;98050.63;4486369;31;20108;-73
2022/01/10 03:35:37;;;;;;;55.15;23.27;;;;;;;-1.59;86.89;98046.88;4485718;31;20163;-74
2022/01/10 03:38:05;;;;;;;57.38;23.05;;;;;;;-1.66;86.66;98047.19;4485933;31;20165;-74
2022/01/10 03:40:33;;;;;;;51.92;21.83;;;;;;;-1.75;87.10;98055.38;4486081;31;20096;-73
2022/01/10 03:43:00;;;;;;;56.28;22.62;;;;;;;-1.84;87.45;98051.53;4486191;31;20128;-73
2022/01/10 03:45:28;;;;;;;52.30;23.12;;;;;;;-1.83;87.73;98063.47;4485564;31;20105;-74
2022/01/10 03:47:55;;;;;;;52.58;22.65;;;;;;;-1.84;87.51;98059.22;4485746;31;20110;-74
2022/01/10 03:50:23;;;;;;;54.03;22.67;;;;;;;-1.58;86.53;98069.09;4485792;31;20160;-74
2022/01/10 03:52:50;;;;;;;51.58;22.20;;;;;;;-1.47;85.67;98066.78;4486178;31;20092;-74
2022/01/10 03:55:17;;;;;;;51.65;22.33;;;;;;;-1.47;85.60;98082.19;4485658;31;20127;-74
2022/01/10 03:57:45;;;;;;;54.65;22.27;;;;;;;-1.48;85.40;98075.44;4486194;31;20092;-74
2022/01/10 04:00:13;;;;;;;51.97;21.48;;;;;;;-1.53;85.98;98077.38;4485875;32;20177;-74
2022/01/10 04:02:50;;;;;;;54.10;21.52;;;;;;;-1.42;85.58;98077.69;4485782;31;20118;-74
2022/01/10 04:05:18;;;;;;;55.25;22.58;;;;;;;-1.39;85.39;98082.66;4485958;31;20600;-74
2022/01/10 04:07:46;;;;;;;56.72;21.77;;;;;;;-1.57;86.01;98087.00;4485778;31;20179;-73
2022/01/10 04:10:13;;;;;;;51.47;21.37;;;;;;;-1.76;86.94;98081.94;4485529;31;20088;-74
2022/01/10 04:12:40;;;;;;;47.38;22.13;;;;;;;-1.71;86.92;98089.41;4484574;32;20104;-74
2022/01/10 04:15:08;;;;;;;53.55;23.33;;;;;;;-1.69;87.10;98093.56;4485643;32;20118;-74
2022/01/10 04:17:36;;;;;;;52.78;22.42;;;;;;;-1.69;87.16;98091.00;4485719;31;20385;-73
2022/01/10 04:20:05;;;;;;;50.92;21.67;;;;;;;-1.53;86.39;98097.94;4485764;31;20101;-74
2022/01/10 04:22:32;;;;;;;49.05;22.02;;;;;;;-1.69;86.95;98090.19;4485807;31;20422;-73
2022/01/10 04:25:00;;;;;;;49.80;20.98;;;;;;;-1.53;86.48;98101.34;4485615;31;20112;-73
2022/01/10 04:27:32;;;;;;;53.78;23.08;;;;;;;-1.43;85.80;98099.12;4485857;31;20085;-74
2022/01/10 04:29:59;;;;;;;51.47;21.45;;;;;;;-1.73;86.51;98102.34;4485588;31;20389;-73
2022/01/10 04:32:30;;;;;;;47.53;20.37;;;;;;;-1.79;87.01;98103.50;4485781;31;20097;-73
2022/01/10 04:34:58;;;;;;;48.47;21.67;;;;;;;-1.72;87.24;98106.56;4485854;31;20093;-73
2022/01/10 04:37:25;;;;;;;53.13;20.48;;;;;;;-1.66;86.69;98110.56;4485128;31;20521;-73
2022/01/10 04:39:52;;;;;;;48.70;19.75;;;;;;;-1.61;86.34;98114.56;4485764;31;20092;-74
2022/01/10 04:42:20;;;;;;;47.38;20.00;;;;;;;-1.70;86.63;98112.44;4485602;31;20100;-74
2022/01/10 04:44:49;;;;;;;43.17;19.98;;;;;;;-1.52;86.02;98109.88;4485517;31;20574;-74
2022/01/10 04:47:17;;;;;;;50.25;21.35;;;;;;;-1.84;87.20;98120.03;4485510;31;20123;-74
2022/01/10 04:52:30;;;;;;;58.45;23.27;;;;;;;-1.62;86.43;98117.19;4485729;31;20105;-74
2022/01/10 04:54:59;;;;;;;61.08;23.77;;;;;;;-1.67;86.57;98117.44;4485402;31;20084;-74
2022/01/10 04:57:27;;;;;;;52.22;21.27;;;;;;;-1.69;86.83;98123.56;4485466;31;20088;-74
2022/01/10 04:59:54;;;;;;;52.47;22.13;;;;;;;-1.50;86.14;98124.31;4485358;31;20104;-74
2022/01/10 05:02:22;;;;;;;52.45;21.40;;;;;;;-1.43;85.24;98114.53;4482781;31;20092;-74
2022/01/10 05:04:49;;;;;;;45.10;20.02;;;;;;;-1.38;84.78;98125.41;4472126;31;20115;-73
2022/01/10 05:07:16;;;;;;;47.17;20.42;;;;;;;-1.32;84.70;98121.69;4479993;32;20097;-74
2022/01/10 05:09:44;;;;;;;45.10;19.35;;;;;;;-1.41;84.91;98130.69;4473939;32;20439;-74
2022/01/10 05:12:12;;;;;;;44.13;20.42;;;;;;;-1.42;84.93;98134.19;4481161;31;20096;-74
2022/01/10 05:14:40;;;;;;;48.13;18.92;;;;;;;-1.48;85.15;98132.75;4475035;31;20103;-74
2022/01/10 05:17:07;;;;;;;46.45;21.10;;;;;;;-1.48;84.93;98148.16;4484987;31;20130;-74
2022/01/10 05:19:35;;;;;;;62.08;24.15;;;;;;;-1.33;83.95;98146.56;4480667;31;20096;-74
2022/01/10 05:22:03;;;;;;;56.28;22.62;;;;;;;-1.40;83.83;98147.78;4479620;32;20180;-74
2022/01/10 05:24:31;;;;;;;60.15;23.45;;;;;;;-1.30;83.32;98148.16;4482691;31;20183;-74
2022/01/10 05:26:58;;;;;;;56.22;23.02;;;;;;;-1.51;83.87;98152.66;4484196;31;20123;-74
2022/01/10 05:29:25;;;;;;;51.00;21.80;;;;;;;-1.37;83.59;98139.91;4485200;31;20104;-74
2022/01/10 05:31:53;;;;;;;50.97;20.60;;;;;;;-1.28;83.01;98151.47;4484534;31;20164;-74
2022/01/10 05:34:21;;;;;;;40.55;18.45;;;;;;;-1.53;83.90;98157.00;4484412;31;20092;-74
2022/01/10 05:36:48;;;;;;;46.28;19.00;;;;;;;-1.52;83.83;98154.38;4483456;31;20100;-74
2022/01/10 05:39:16;;;;;;;43.97;18.15;;;;;;;-1.26;83.05;98149.66;4484070;31;20105;-74
2022/01/10 05:41:46;;;;;;;46.25;19.30;;;;;;;-1.33;83.00;98144.00;4483653;31;20405;-74
2022/01/10 05:44:13;;;;;;;46.65;18.10;;;;;;;-1.20;82.46;98151.91;4484278;31;20115;-74
2022/01/10 05:46:42;;;;;;;42.22;17.77;;;;;;;-1.21;82.54;98160.53;4484277;31;20458;-74
2022/01/10 05:49:15;;;;;;;52.88;20.15;;;;;;;-1.30;83.10;98163.59;4481537;32;20147;-74
2022/01/10 05:51:42;;;;;;;43.22;18.87;;;;;;;-1.35;83.62;98162.97;4483393;32;20146;-74
2022/01/10 05:54:11;;;;;;;50.35;21.05;;;;;;;-1.32;84.05;98163.66;4484192;31;20092;-74
2022/01/10 05:56:39;;;;;;;61.08;21.75;;;;;;;-1.34;84.99;98160.31;4480483;32;20095;-74
2022/01/10 05:59:06;;;;;;;54.42;21.77;;;;;;;-1.47;86.16;98161.84;4483323;32;20104;-74
2022/01/10 06:01:33;;;;;;;49.13;21.12;;;;;;;-1.47;86.56;98160.12;4484808;31;20102;-73
2022/01/10 06:04:01;;;;;;;61.70;21.37;;;;;;;-1.45;86.72;98167.75;4483118;31;20473;-74
2022/01/10 06:06:30;;;;;;;50.12;21.90;;;;;;;-1.52;86.53;98166.38;4483836;31;20465;-74
2022/01/10 06:08:57;;;;;;;54.10;22.37;;;;;;;-1.67;87.45;98165.41;4483918;31;20491;-74
2022/01/10 06:11:24;;;;;;;49.63;20.67;;;;;;;-1.56;87.14;98163.16;4484471;31;20133;-74
2022/01/10 06:13:51;;;;;;;54.88;22.37;;;;;;;-1.56;86.70;98170.84;4483631;31;20135;-73
2022/01/10 06:16:20;;;;;;;57.97;20.35;;;;;;;-1.52;86.61;98171.53;4483891;31;20105;-74
2022/01/10 06:18:48;;;;;;;44.67;19.73;;;;;;;-1.55;86.75;98167.34;4481766;31;20511;-74
2022/01/10 06:21:15;;;;;;;48.30;21.73;;;;;;;-1.65;87.04;98177.28;4482016;31;20159;-73
2022/01/10 06:23:43;;;;;;;45.03;18.92;;;;;;;-1.56;86.36;98172.56;4480991;31;20128;-73
2022/01/10 06:26:10;;;;;;;43.75;19.70;;;;;;;-1.61;86.57;98176.19;4482180;32;20108;-73
2022/01/10 06:28:38;;;;;;;61.53;22.25;;;;;;;-1.64;86.54;98184.03;4483371;32;20167;-73
2022/01/10 06:31:05;;;;;;;58.63;23.92;;;;;;;-1.65;86.13;98177.28;4483704;31;20167;-73
2022/01/10 06:33:34;;;;;;;47.80;22.13;;;;;;;-1.81;87.01;98179.75;4483393;32;20251;-74
2022/01/10 06:36:02;;;;;;;57.72;24.02;;;;;;;-1.67;86.63;98186.75;4483290;31;20111;-74
2022/01/10 06:38:30;;;;;;;47.38;22.15;;;;;;;-1.73;86.94;98189.63;4483660;31;20934;-74
2022/01/10 06:40:57;;;;;;;48.15;20.65;;;;;;;-1.73;86.88;98187.06;4483447;31;20096;-74
2022/01/10 06:43:24;;;;;;;54.92;22.92;;;;;;;-1.84;87.72;98197.03;4483459;32;20145;-74
2022/01/10 06:45:52;;;;;;;48.15;21.95;;;;;;;-1.76;87.42;98196.66;4476478;31;20135;-75
2022/01/10 06:48:20;;;;;;;45.80;19.77;;;;;;;-1.83;87.82;98196.97;4482662;32;20216;-75
2022/01/10 06:50:48;;;;;;;59.30;22.90;;;;;;;-1.64;87.25;98204.59;4480721;32;20119;-75
2022/01/10 06:53:17;;;;;;;56.10;24.42;;;;;;;-1.68;87.23;98204.81;4483211;31;20155;-75
2022/01/10 06:55:45;;;;;;;55.78;22.25;;;;;;;-1.71;87.04;98208.38;4481978;31;20283;-76
2022/01/10 06:58:13;;;;;;;49.00;21.62;;;;;;;-1.68;86.79;98210.81;4475709;31;20092;-73
2022/01/10 07:00:41;;;;;;;47.78;21.12;;;;;;;-1.66;86.76;98208.16;4481280;31;20582;-74
2022/01/10 07:03:09;;;;;;;54.17;22.33;;;;;;;-1.70;86.32;98219.47;4480153;31;20096;-74
2022/01/10 07:05:37;;;;;;;45.95;18.75;;;;;;;-1.58;85.60;98218.88;4469063;31;20089;-73
2022/01/10 07:08:05;;;;;;;46.47;19.80;;;;;;;-1.48;85.08;98219.28;4478738;31;20096;-74
2022/01/10 07:10:33;;;;;;;46.75;19.60;;;;;;;-1.41;84.46;98230.06;4480387;31;20125;-73
2022/01/10 07:13:00;;;;;;;47.13;19.80;;;;;;;-1.35;84.16;98230.59;4479520;31;20363;-75
2022/01/10 07:15:29;;;;;;;41.20;19.02;;;;;;;-1.35;83.29;98229.78;4484014;31;20101;-75
2022/01/10 07:17:57;;;;;;;46.28;19.62;;;;;;;-1.28;82.98;98236.28;4479384;31;20101;-76
2022/01/10 07:20:27;;;;;;;44.83;19.40;;;;;;;-1.20;82.85;98235.88;4477790;31;20092;-74
2022/01/10 07:22:54;;;;;;;48.92;19.85;;;;;;;-1.20;82.48;98241.84;4479536;31;20478;-75
2022/01/10 07:25:22;;;;;;;47.17;19.23;;;;;;;-1.14;82.09;98238.97;4477813;31;20092;-74
2022/01/10 07:27:49;;;;;;;45.10;19.02;;;;;;;-1.08;81.84;98245.56;4484144;31;20122;-74
2022/01/10 07:30:16;;;;;;;47.85;20.12;;;;;;;-0.90;81.09;98242.03;4473968;31;20092;-75
2022/01/10 07:32:44;;;;;;;47.80;18.52;;;;;;;-0.86;80.39;98253.03;4482743;31;20201;-74
2022/01/10 07:35:11;;;;;;;44.08;18.45;;;;;;;-0.94;80.34;98260.28;4483700;31;20111;-74
2022/01/10 07:37:39;;;;;;;40.63;17.42;;;;;;;-0.94;80.67;98270.56;4485597;31;20100;-75
2022/01/10 07:40:07;;;;;;;41.35;18.60;;;;;;;-0.96;80.78;98272.38;4482785;31;20160;-75
2022/01/10 07:42:34;;;;;;;44.72;18.12;;;;;;;-0.93;80.66;98270.47;4475553;31;20089;-76
2022/01/10 07:45:03;;;;;;;50.92;20.17;;;;;;;-0.83;80.52;98276.00;4477751;31;20108;-74
2022/01/10 07:47:32;;;;;;;43.50;18.15;;;;;;;-0.63;79.90;98274.97;4483281;31;20123;-75
2022/01/10 07:49:59;;;;;;;45.55;19.52;;;;;;;-0.55;79.83;98272.81;4477899;31;20138;-73
2022/01/10 07:52:27;;;;;;;44.20;20.55;;;;;;;-0.58;80.29;98282.47;4486227;31;20096;-74
2022/01/10 07:54:54;;;;;;;49.50;21.62;;;;;;;-0.58;81.15;98283.28;4482164;31;20176;-74
2022/01/10 07:57:21;;;;;;;52.20;22.75;;;;;;;-0.49;81.17;98287.13;4493533;31;20127;-74
2022/01/10 07:59:48;;;;;;;56.63;24.52;;;;;;;-0.40;80.91;98284.06;4487758;31;20127;-75
2022/01/10 08:02:16;;;;;;;57.70;24.70;;;;;;;-0.48;81.00;98283.66;4473752;31;20120;-75
2022/01/10 08:04:44;;;;;;;54.88;24.42;;;;;;;-0.52;81.18;98289.03;4480244;31;20156;-75
2022/01/10 08:07:11;;;;;;;55.08;23.45;;;;;;;-0.51;81.10;98291.53;4476045;31;20115;-75
2022/01/10 08:09:38;;;;;;;58.13;22.33;;;;;;;-0.43;80.22;98291.94;4477138;31;20096;-76
2022/01/10 08:12:06;;;;;;;50.22;21.30;;;;;;;-0.25;79.93;98290.16;4484312;31;20130;-75
2022/01/10 08:14:34;;;;;;;48.15;22.02;;;;;;;-0.18;79.34;98293.25;4480554;31;20298;-75
2022/01/10 08:17:01;;;;;;;45.72;20.73;;;;;;;0.10;78.74;98300.31;4484225;31;20096;-76
2022/01/10 08:19:30;;;;;;;49.33;20.00;;;;;;;0.27;77.27;98301.16;4479449;31;20160;-76
2022/01/10 08:21:58;;;;;;;40.30;18.02;;;;;;;0.47;75.07;98300.87;4482754;31;20144;-76
2022/01/10 08:24:25;;;;;;;36.05;17.25;;;;;;;0.45;74.16;98302.69;4483587;31;20145;-75
2022/01/10 08:26:53;;;;;;;38.33;16.30;;;;;;;0.62;73.10;98303.50;4482061;31;20088;-75
2022/01/10 08:29:21;;;;;;;44.03;17.83;;;;;;;0.80;73.29;98305.06;4483779;31;20489;-75
2022/01/10 08:31:49;;;;;;;36.03;17.48;;;;;;;0.93;72.63;98312.09;4478743;31;20130;-74
2022/01/10 08:34:16;;;;;;;48.72;17.80;;;;;;;1.02;71.76;98306.41;4480384;31;20084;-73
2022/01/10 08:36:43;;;;;;;34.38;15.27;;;;;;;1.19;70.99;98313.16;4478456;31;20115;-73
2022/01/10 08:39:10;;;;;;;32.00;14.38;;;;;;;1.14;68.98;98312.62;4477720;32;20106;-74
2022/01/10 08:41:39;;;;;;;37.03;15.13;;;;;;;1.13;69.31;98309.19;4477323;31;20104;-74
2022/01/10 08:44:06;;;;;;;33.45;14.30;;;;;;;1.16;68.95;98310.75;4481394;32;20096;-74
2022/01/10 08:46:34;;;;;;;28.83;14.35;;;;;;;1.13;68.67;98316.09;4474230;32;20965;-77
2022/01/10 08:49:02;;;;;;;30.65;15.02;;;;;;;1.03;68.97;98319.22;4472397;32;20104;-74
2022/01/10 08:51:29;;;;;;;29.00;13.95;;;;;;;1.26;68.90;98322.22;4477117;32;20120;-76
2022/01/10 08:53:56;;;;;;;30.37;13.68;;;;;;;1.24;67.80;98318.88;4478037;31;20131;-74
2022/01/10 08:56:24;;;;;;;29.98;14.23;;;;;;;1.31;67.82;98322.78;4476877;32;20518;-74
2022/01/10 08:58:51;;;;;;;31.25;14.32;;;;;;;1.28;68.51;98322.94;4479270;32;20100;-72
2022/01/10 09:01:19;;;;;;;30.20;14.93;;;;;;;1.27;68.55;98330.78;4479411;32;20445;-73
2022/01/10 09:03:47;;;;;;;34.05;16.40;;;;;;;1.21;68.77;98331.97;4473566;32;20489;-73
2022/01/10 09:06:14;;;;;;;35.53;14.82;;;;;;;1.24;69.23;98335.22;4478653;32;20108;-73
2022/01/10 09:08:44;;;;;;;33.22;14.68;;;;;;;1.18;69.73;98340.72;4480717;31;20157;-74
2022/01/10 09:11:11;;;;;;;36.35;15.43;;;;;;;1.33;69.60;98341.59;4470106;31;20123;-73
2022/01/10 09:13:39;;;;;;;36.97;14.48;;;;;;;1.38;70.31;98347.31;4472345;32;20084;-73
2022/01/10 09:16:07;;;;;;;41.90;16.87;;;;;;;1.46;69.55;98346.03;4470940;31;20104;-73
2022/01/10 09:18:35;;;;;;;35.47;15.95;;;;;;;1.75;69.60;98346.87;4472312;31;20160;-73
2022/01/10 09:21:02;;;;;;;29.17;15.07;;;;;;;1.53;68.45;98348.16;4477875;31;20119;-75
2022/01/10 09:23:29;;;;;;;31.90;14.38;;;;;;;1.65;69.12;98356.09;4480354;31;20449;-74
2022/01/10 09:25:57;;;;;;;27.10;12.63;;;;;;;1.82;69.18;98350.75;4471088;31;20092;-75
2022/01/10 09:28:24;;;;;;;33.00;13.77;;;;;;;1.67;67.01;98352.50;4471797;32;20100;-75
2022/01/10 09:30:51;;;;;;;25.00;12.45;;;;;;;1.57;67.30;98349.63;4477181;32;20682;-75
2022/01/10 09:33:19;;;;;;;32.15;14.05;;;;;;;1.67;67.09;98360.25;4469553;32;20088;-75
2022/01/10 09:35:46;;;;;;;30.95;15.10;;;;;;;1.63;67.22;98358.75;4476871;31;20096;-75
2022/01/10 09:38:13;;;;;;;24.05;12.45;;;;;;;1.56;67.79;98352.28;4478285;31;20153;-74
2022/01/10 09:40:40;;;;;;;31.75;14.10;;;;;;;1.57;67.05;98346.22;4478279;32;20149;-74
2022/01/10 09:43:18;;;;;;;31.77;14.15;;;;;;;1.72;66.64;98357.38;4482505;32;20473;-75
2022/01/10 09:45:46;;;;;;;36.88;15.18;;;;;;;1.85;67.04;98350.56;4471205;32;20161;-75
2022/01/10 09:48:14;;;;;;;54.05;23.62;;;;;;;1.91;66.64;98345.03;4462320;32;182460;-75
2022/01/10 09:50:42;;;;;;;57.15;23.38;;;;;;;1.81;72.85;98341.34;4478315;31;20092;-74
2022/01/10 09:53:10;;;;;;;50.05;21.58;;;;;;;1.90;74.00;98343.34;4479569;32;20123;-73
2022/01/10 09:55:37;;;;;;;50.17;21.23;;;;;;;1.72;74.93;98349.63;4474544;32;20153;-74
2022/01/10 09:58:05;;;;;;;46.85;21.92;;;;;;;1.36;75.01;98345.72;4477716;32;20108;-74
2022/01/10 10:00:33;;;;;;;48.10;19.42;;;;;;;1.49;75.10;98344.09;4471200;31;20185;-74
2022/01/10 10:03:01;;;;;;;52.10;20.65;;;;;;;1.57;74.14;98347.03;4475958;32;20164;-73
2022/01/10 10:05:29;;;;;;;46.17;19.85;;;;;;;1.48;74.38;98346.75;4471170;32;20116;-74
2022/01/10 10:07:57;;;;;;;46.90;20.00;;;;;;;1.50;74.85;98342.31;4476836;32;20171;-74
2022/01/10 10:10:28;;;;;;;49.00;20.55;;;;;;;1.63;73.84;98342.44;4479439;31;20829;-73
2022/01/10 10:12:55;;;;;;;49.00;19.62;;;;;;;1.65;72.77;98353.50;4469500;32;21140;-74
2022/01/10 10:15:27;;;;;;;43.53;18.92;;;;;;;1.59;72.03;98350.38;4474007;31;20116;-74
2022/01/10 10:17:55;;;;;;;44.67;19.27;;;;;;;1.72;72.74;98355.63;4467758;32;20108;-73
2022/01/10 10:20:23;;;;;;;42.25;19.00;;;;;;;1.79;71.69;98340.59;4472627;32;20122;-73
2022/01/10 10:23:14;;;;;;;42.83;16.27;;;;;;;1.99;71.61;98347.16;4472977;32;20163;-74
2022/01/10 10:25:49;;;;;;;39.17;16.33;;;;;;;2.02;69.46;98346.13;4469615;32;20116;-74
2022/01/10 10:28:17;;;;;;;36.80;16.30;;;;;;;2.19;69.11;98345.09;4470869;32;20218;-73
2022/01/10 10:30:44;;;;;;;41.55;17.58;;;;;;;2.07;69.05;98351.84;4472270;31;20768;-74
2022/01/10 10:33:20;;;;;;;39.40;17.70;;;;;;;2.09;68.98;98342.22;4477520;32;20096;-74
2022/01/10 10:36:00;;;;;;;40.38;17.95;;;;;;;2.11;68.90;98343.81;4476889;32;20119;-74
2022/01/10 10:38:27;;;;;;;36.78;16.52;;;;;;;2.23;69.39;98344.81;4470395;32;20139;-74
2022/01/10 10:40:59;;;;;;;45.25;19.23;;;;;;;2.48;68.25;98338.09;4473962;32;20114;-74
2022/01/10 10:43:33;;;;;;;50.55;19.27;;;;;;;2.46;68.64;98345.94;4472356;32;20101;-74
2022/01/10 10:46:01;;;;;;;51.72;18.85;;;;;;;2.30;69.78;98353.00;4478430;32;20112;-74
2022/01/10 10:48:30;;;;;;;37.75;16.02;;;;;;;2.50;69.41;98349.19;4482873;31;20100;-74
2022/01/10 10:50:58;;;;;;;39.00;16.70;;;;;;;2.48;68.28;98343.25;4473365;31;20084;-74
2022/01/10 10:53:28;;;;;;;31.73;14.43;;;;;;;2.55;68.05;98339.37;4476051;32;20140;-73
2022/01/10 10:55:58;;;;;;;41.50;17.40;;;;;;;2.63;67.26;98350.06;4473757;32;20092;-73
2022/01/10 10:58:31;;;;;;;41.55;18.23;;;;;;;2.42;68.92;98341.91;4482430;31;20118;-75
2022/01/10 11:00:59;;;;;;;37.33;15.77;;;;;;;2.43;69.28;98351.31;4481133;32;20088;-74
2022/01/10 11:03:27;;;;;;;39.58;17.08;;;;;;;2.63;69.45;98354.41;4472339;32;20817;-75
2022/01/10 11:05:59;;;;;;;33.47;15.13;;;;;;;2.61;69.48;98349.31;4482107;31;20169;-74
2022/01/10 11:08:27;;;;;;;45.40;18.17;;;;;;;2.59;68.64;98347.75;4483677;31;20438;-75
2022/01/10 11:10:55;;;;;;;45.58;18.98;;;;;;;2.69;70.43;98356.59;4472461;32;20473;-73
2022/01/10 11:13:24;;;;;;;42.22;17.73;;;;;;;2.65;70.83;98360.31;4484725;31;20108;-74
2022/01/10 11:15:52;;;;;;;36.22;16.73;;;;;;;2.80;69.31;98363.66;4477693;31;20108;-75
2022/01/10 11:18:24;;;;;;;33.40;15.32;;;;;;;2.76;68.58;98362.22;4481328;32;20173;-75
2022/01/10 11:20:53;;;;;;;40.55;17.35;;;;;;;2.87;67.82;98364.94;4475987;32;20812;-75
2022/01/10 11:23:39;;;;;;;;;;;;;;;2.81;69.89;98373.91;4478740;32;20120;-75
2022/01/10 11:26:08;;;;;;;46.53;18.95;;;;;;;2.66;70.76;98374.91;4470000;31;20397;-74
2022/01/10 11:28:46;;;;;;;39.97;15.45;;;;;;;2.70;71.49;98370.37;4477645;31;20199;-73
2022/01/10 11:31:27;;;;;;;44.00;18.20;;;;;;;2.56;72.34;98366.91;4482726;32;20098;-75
2022/01/10 11:33:56;;;;;;;37.58;16.67;;;;;;;2.36;73.41;98380.22;4481448;31;20096;-74
2022/01/10 11:36:26;;;;;;;42.92;17.37;;;;;;;2.53;72.75;98377.44;4480577;31;20092;-74
2022/01/10 11:38:55;;;;;;;44.70;18.48;;;;;;;2.55;71.66;98379.94;4466792;32;20398;-73
2022/01/10 11:41:28;;;;;;;40.80;17.48;;;;;;;2.63;72.83;98382.84;4467460;32;20163;-73